Time;durP1;ratioP1;P1;durP2;ratioP2;P2;SDS_P1;SDS_P2;PMS_P1;PMS_P2;Temp;Humidity;BMP_temperature;BMP_pressure;BME280_temperature;BME280_humidity;BME280_pressure;Samples;Min_cycle;Max_cycle;Signal;HPM_P1;HPM_P2
2022/01/25 00:15:01;;;;;;;16.60;10.63;;;;;;;;;;5009154;28;20041;-61
2022/01/25 00:27:38;;;;;;;20.42;10.90;;;;;;;;;;5010150;28;20029;-60
2022/01/25 00:30:22;;;;;;;20.48;11.20;;;;;;;;;;5006501;28;20037;-54
2022/01/25 00:32:45;;;;;;;17.73;10.77;;;;;;;;;;5009258;28;20121;-60
2022/01/25 00:35:11;;;;;;;17.17;9.88;;;;;;;;;;5006345;28;20219;-57
2022/01/25 00:37:36;;;;;;;20.95;10.77;;;;;;;;;;5010169;28;20036;-60
2022/01/25 00:40:03;;;;;;;22.35;10.68;;;;;;;;;;5008708;28;20056;-59
2022/01/25 00:42:29;;;;;;;16.60;10.05;;;;;;;;;;5008268;28;20044;-61
2022/01/25 00:44:55;;;;;;;16.65;10.40;;;;;;;;;;5006812;28;20029;-60
2022/01/25 00:47:21;;;;;;;20.83;10.57;;;;;;;;;;4993730;28;20014;-57
2022/01/25 00:50:02;;;;;;;15.10;8.78;;;;;;;;;;1167663;28;10023041;-52
2022/01/25 00:55:03;;;;;;;18.40;10.57;;;;;;;;;;5008867;28;20026;-61
2022/01/25 00:57:28;;;;;;;21.80;10.48;;;;;;;;;;5008991;28;20044;-60
2022/01/25 00:59:54;;;;;;;18.90;11.27;;;;;;;;;;5007084;28;20034;-60
2022/01/25 01:02:19;;;;;;;18.33;11.00;;;;;;;;;;5009881;28;20036;-60
2022/01/25 01:04:46;;;;;;;19.00;10.85;;;;;;;;;;5010826;28;20028;-58
2022/01/25 01:07:15;;;;;;;21.33;11.43;;;;;;;;;;5013472;28;20017;-57
2022/01/25 01:09:43;;;;;;;17.55;10.95;;;;;;;;;;5011754;28;20037;-59
2022/01/25 01:12:42;;;;;;;23.48;12.38;;;;;;;;;;5010380;28;20038;-60
2022/01/25 01:15:21;;;;;;;24.20;12.15;;;;;;;;;;5009868;28;20034;-60
2022/01/25 01:31:32;;;;;;;25.38;11.90;;;;;;;;;;5013666;28;20045;-57
2022/01/25 01:47:48;;;;;;;20.02;10.90;;;;;;;;;;3629104;28;10000988;-60
2022/01/25 01:50:14;;;;;;;19.45;11.10;;;;;;;;;;5010917;28;20074;-59
2022/01/25 01:52:43;;;;;;;19.48;11.02;;;;;;;;;;5013172;28;20117;-57
2022/01/25 01:55:09;;;;;;;20.13;10.60;;;;;;;;;;5013476;28;20556;-61
2022/01/25 01:57:35;;;;;;;19.05;10.98;;;;;;;;;;5012122;28;20469;-60
2022/01/25 02:00:00;;;;;;;19.90;11.25;;;;;;;;;;5010032;28;20565;-61
2022/01/25 02:02:26;;;;;;;20.42;10.82;;;;;;;;;;5012935;28;20026;-59
2022/01/25 02:04:51;;;;;;;17.20;10.25;;;;;;;;;;5011095;28;20033;-59
2022/01/25 02:07:17;;;;;;;20.42;11.02;;;;;;;;;;5011339;28;20030;-60
2022/01/25 02:09:42;;;;;;;19.35;10.18;;;;;;;;;;5011710;28;20041;-59
2022/01/25 02:12:08;;;;;;;18.75;10.32;;;;;;;;;;5011595;28;20026;-57
2022/01/25 02:14:36;;;;;;;20.10;11.05;;;;;;;;;;5013077;28;20057;-61
2022/01/25 02:17:13;;;;;;;19.15;10.13;;;;;;;;;;5009886;28;20100;-61
2022/01/25 02:24:48;;;;;;;15.70;9.23;;;;;;;;;;5009507;28;20030;-62
2022/01/25 02:27:14;;;;;;;17.33;10.73;;;;;;;;;;5009404;28;20026;-61
2022/01/25 02:29:40;;;;;;;16.95;9.63;;;;;;;;;;4984996;28;20038;-56
2022/01/25 02:32:07;;;;;;;18.05;10.23;;;;;;;;;;4984816;28;20026;-61
2022/01/25 02:34:32;;;;;;;17.42;10.30;;;;;;;;;;5006225;28;20088;-60
2022/01/25 02:37:02;;;;;;;21.05;9.82;;;;;;;;;;5003980;28;20025;-62
2022/01/25 02:39:28;;;;;;;21.85;10.65;;;;;;;;;;5002497;28;20048;-60
2022/01/25 02:41:54;;;;;;;19.15;10.43;;;;;;;;;;5001852;28;20116;-63
2022/01/25 02:44:25;;;;;;;22.55;10.48;;;;;;;;;;5000332;28;20120;-61
2022/01/25 02:49:29;;;;;;;16.88;9.40;;;;;;;;;;5003404;28;20482;-60
2022/01/25 02:51:55;;;;;;;18.77;10.85;;;;;;;;;;4984911;28;20033;-59
2022/01/25 02:54:20;;;;;;;21.00;10.57;;;;;;;;;;4999466;28;20129;-60
2022/01/25 02:56:47;;;;;;;18.98;11.50;;;;;;;;;;5000426;28;20092;-60
2022/01/25 02:59:14;;;;;;;18.15;9.70;;;;;;;;;;5002625;28;20034;-60
2022/01/25 03:01:41;;;;;;;18.95;10.23;;;;;;;;;;4999573;28;20095;-60
2022/01/25 03:04:08;;;;;;;17.65;10.07;;;;;;;;;;5004847;28;20150;-60
2022/01/25 03:06:34;;;;;;;17.95;9.70;;;;;;;;;;5008814;28;20052;-60
2022/01/25 03:09:00;;;;;;;19.15;9.90;;;;;;;;;;5008379;28;20107;-60
2022/01/25 03:11:26;;;;;;;17.60;10.18;;;;;;;;;;4993182;28;20033;-60
2022/01/25 03:13:54;;;;;;;18.27;10.00;;;;;;;;;;5011198;28;20034;-60
2022/01/25 03:16:42;;;;;;;17.25;10.10;;;;;;;;;;5009589;28;20038;-59
2022/01/25 03:21:57;;;;;;;19.20;9.05;;;;;;;;;;5010880;28;20033;-59
2022/01/25 03:24:23;;;;;;;16.05;8.90;;;;;;;;;;5010221;28;20414;-60
2022/01/25 03:26:49;;;;;;;21.15;10.05;;;;;;;;;;5005686;28;20127;-57
2022/01/25 03:29:14;;;;;;;21.52;9.73;;;;;;;;;;5009488;28;20057;-58
2022/01/25 03:31:40;;;;;;;19.65;9.75;;;;;;;;;;5009161;28;20141;-60
2022/01/25 03:34:06;;;;;;;17.67;9.80;;;;;;;;;;5012491;28;20212;-60
2022/01/25 03:36:31;;;;;;;24.88;10.65;;;;;;;;;;4987561;28;20065;-60
2022/01/25 03:38:57;;;;;;;28.30;10.25;;;;;;;;;;5010178;28;20034;-57
2022/01/25 03:41:36;;;;;;;21.60;9.20;;;;;;;;;;3996033;28;10001834;-56
2022/01/25 03:44:02;;;;;;;22.20;9.55;;;;;;;;;;1726094;28;10002070;-60
2022/01/25 03:51:41;;;;;;;20.50;9.65;;;;;;;;;;5011746;28;20043;-60
2022/01/25 03:54:06;;;;;;;15.25;9.00;;;;;;;;;;5010193;28;20101;-60
2022/01/25 03:56:32;;;;;;;27.00;9.18;;;;;;;;;;5008849;28;20029;-61
2022/01/25 03:58:58;;;;;;;23.23;9.30;;;;;;;;;;5008619;28;20069;-61
2022/01/25 04:01:23;;;;;;;20.48;9.25;;;;;;;;;;5010767;28;20112;-61
2022/01/25 04:04:01;;;;;;;24.33;9.68;;;;;;;;;;5007333;28;20080;-61
2022/01/25 04:06:30;;;;;;;20.65;8.50;;;;;;;;;;5010028;28;20034;-61
2022/01/25 04:08:57;;;;;;;19.33;9.52;;;;;;;;;;5009586;28;20104;-60
2022/01/25 04:11:22;;;;;;;30.02;9.48;;;;;;;;;;5007649;28;20064;-60
2022/01/25 04:13:51;;;;;;;25.45;10.18;;;;;;;;;;5010255;28;20816;-60
2022/01/25 04:16:21;;;;;;;16.73;9.38;;;;;;;;;;5006448;28;20060;-58
2022/01/25 04:26:50;;;;;;;21.08;9.13;;;;;;;;;;5005711;28;20052;-56
2022/01/25 04:29:16;;;;;;;22.65;10.00;;;;;;;;;;5008560;28;20029;-60
2022/01/25 04:31:42;;;;;;;19.15;11.07;;;;;;;;;;5006538;28;20049;-59
2022/01/25 04:50:13;;;;;;;17.38;9.38;;;;;;;;;;5008579;28;20571;-60
2022/01/25 04:52:51;;;;;;;16.42;8.32;;;;;;;;;;5008775;28;20088;-62
2022/01/25 04:55:31;;;;;;;17.98;9.48;;;;;;;;;;5007136;28;20033;-60
2022/01/25 04:58:03;;;;;;;15.82;8.77;;;;;;;;;;5007966;28;20033;-60
2022/01/25 05:00:29;;;;;;;14.70;8.30;;;;;;;;;;5005749;28;20066;-61
2022/01/25 05:03:06;;;;;;;16.38;8.07;;;;;;;;;;5006018;28;20382;-60
2022/01/25 05:05:54;;;;;;;15.45;8.40;;;;;;;;;;5004424;28;20087;-58
2022/01/25 05:08:37;;;;;;;16.95;8.48;;;;;;;;;;5009334;28;20048;-60
2022/01/25 05:11:09;;;;;;;14.95;8.10;;;;;;;;;;5008209;28;20109;-61
2022/01/25 05:16:28;;;;;;;16.95;8.50;;;;;;;;;;5007332;28;20034;-60
2022/01/25 05:19:03;;;;;;;15.23;7.93;;;;;;;;;;5006343;28;20036;-61
2022/01/25 05:24:13;;;;;;;15.30;8.52;;;;;;;;;;5004275;28;20106;-60
2022/01/25 05:26:39;;;;;;;13.98;7.45;;;;;;;;;;5006488;28;20026;-61
2022/01/25 05:29:04;;;;;;;16.25;7.97;;;;;;;;;;5004383;28;20037;-60
2022/01/25 05:31:29;;;;;;;15.20;8.13;;;;;;;;;;5002339;28;20095;-60
2022/01/25 05:33:55;;;;;;;12.00;7.40;;;;;;;;;;5004886;28;20489;-61
2022/01/25 05:36:20;;;;;;;14.10;8.25;;;;;;;;;;5004904;28;20045;-59
2022/01/25 05:38:47;;;;;;;14.45;7.30;;;;;;;;;;5006597;28;20474;-60
2022/01/25 05:41:13;;;;;;;16.23;8.00;;;;;;;;;;5006081;28;20037;-61
2022/01/25 05:44:12;;;;;;;12.20;6.88;;;;;;;;;;5005812;28;20050;-61
2022/01/25 05:47:02;;;;;;;11.57;7.18;;;;;;;;;;5004756;28;20037;-60
2022/01/25 05:49:23;;;;;;;10.90;6.85;;;;;;;;;;5006537;28;20042;-61
2022/01/25 05:51:50;;;;;;;14.10;7.28;;;;;;;;;;5007612;28;20466;-54
2022/01/25 05:54:15;;;;;;;15.32;8.20;;;;;;;;;;5011871;28;20389;-61
2022/01/25 05:56:41;;;;;;;13.85;7.28;;;;;;;;;;4990794;28;20044;-60
2022/01/25 05:59:07;;;;;;;12.60;7.28;;;;;;;;;;5011825;28;20246;-61
2022/01/25 06:01:34;;;;;;;12.95;7.00;;;;;;;;;;5012092;28;20057;-61
2022/01/25 06:04:13;;;;;;;10.80;6.90;;;;;;;;;;2085054;28;10022994;-58
2022/01/25 06:06:38;;;;;;;12.75;7.13;;;;;;;;;;3628872;28;10001307;-56
2022/01/25 06:09:04;;;;;;;14.27;7.63;;;;;;;;;;5010613;28;20022;-60
2022/01/25 06:11:29;;;;;;;11.07;8.07;;;;;;;;;;5011287;28;20029;-58
2022/01/25 06:13:55;;;;;;;11.63;6.90;;;;;;;;;;5010524;28;20385;-55
2022/01/25 06:16:21;;;;;;;16.25;7.97;;;;;;;;;;5008275;28;20061;-57
2022/01/25 06:18:46;;;;;;;13.88;8.05;;;;;;;;;;5014118;28;20116;-57
2022/01/25 06:21:12;;;;;;;11.82;7.35;;;;;;;;;;5009353;28;20506;-55
2022/01/25 06:23:37;;;;;;;14.38;7.57;;;;;;;;;;5010769;28;20037;-58
2022/01/25 06:26:03;;;;;;;12.30;7.28;;;;;;;;;;5008668;28;20278;-54
2022/01/25 06:28:29;;;;;;;15.00;8.05;;;;;;;;;;5010960;28;20124;-58
2022/01/25 06:30:54;;;;;;;14.57;7.75;;;;;;;;;;5008565;28;20117;-58
2022/01/25 06:33:20;;;;;;;16.08;7.53;;;;;;;;;;5009976;28;20072;-56
2022/01/25 06:35:46;;;;;;;13.23;7.53;;;;;;;;;;4994072;28;20405;-56
2022/01/25 06:38:13;;;;;;;15.63;7.75;;;;;;;;;;5010101;28;20034;-53
2022/01/25 06:40:38;;;;;;;16.08;8.48;;;;;;;;;;5010647;28;20076;-55
2022/01/25 06:43:04;;;;;;;15.05;8.13;;;;;;;;;;5007798;28;20033;-57
2022/01/25 06:45:30;;;;;;;14.80;8.70;;;;;;;;;;5010346;28;20034;-58
2022/01/25 06:47:56;;;;;;;17.95;9.02;;;;;;;;;;5008399;28;20078;-58
2022/01/25 06:50:24;;;;;;;17.90;9.38;;;;;;;;;;5009132;28;20026;-57
2022/01/25 06:52:51;;;;;;;18.17;9.43;;;;;;;;;;5008796;28;20029;-54
2022/01/25 06:55:18;;;;;;;15.02;9.30;;;;;;;;;;5009831;28;20852;-55
2022/01/25 06:57:44;;;;;;;14.30;8.88;;;;;;;;;;5008498;28;20107;-56
2022/01/25 07:00:16;;;;;;;17.85;9.10;;;;;;;;;;5009326;28;20493;-57
2022/01/25 07:02:41;;;;;;;15.75;9.65;;;;;;;;;;5008032;28;20030;-57
2022/01/25 07:05:08;;;;;;;16.67;9.45;;;;;;;;;;5009548;28;20044;-52
2022/01/25 07:07:34;;;;;;;18.85;10.13;;;;;;;;;;5009172;28;20030;-55
2022/01/25 07:10:00;;;;;;;19.13;9.63;;;;;;;;;;5009752;28;20448;-57
2022/01/25 07:12:25;;;;;;;18.52;9.35;;;;;;;;;;4992667;28;20026;-57
2022/01/25 07:14:51;;;;;;;19.50;9.60;;;;;;;;;;5010869;28;20129;-53
2022/01/25 07:17:16;;;;;;;15.55;9.25;;;;;;;;;;5006720;28;20038;-57
2022/01/25 07:19:42;;;;;;;16.17;9.25;;;;;;;;;;5009843;28;20393;-57
2022/01/25 07:22:08;;;;;;;18.17;10.00;;;;;;;;;;5006341;28;20112;-55
2022/01/25 07:24:33;;;;;;;17.17;9.68;;;;;;;;;;5008505;28;20521;-55
2022/01/25 07:26:59;;;;;;;17.02;9.63;;;;;;;;;;5010220;28;20076;-58
2022/01/25 07:29:25;;;;;;;18.70;9.35;;;;;;;;;;4990056;28;20457;-57
2022/01/25 07:31:50;;;;;;;17.42;9.73;;;;;;;;;;5007578;28;20128;-51
2022/01/25 07:34:16;;;;;;;14.43;9.98;;;;;;;;;;5009951;28;20167;-56
2022/01/25 07:36:42;;;;;;;16.63;9.65;;;;;;;;;;5008835;28;20073;-57
2022/01/25 07:39:08;;;;;;;15.93;9.00;;;;;;;;;;5004254;28;20036;-56
2022/01/25 07:41:34;;;;;;;18.17;9.25;;;;;;;;;;5008186;28;20561;-59
2022/01/25 07:43:59;;;;;;;18.95;9.07;;;;;;;;;;5009555;28;20114;-57
2022/01/25 07:46:42;;;;;;;16.74;9.39;;;;;;;;;;2940489;28;10004096;-54
2022/01/25 07:49:08;;;;;;;20.23;9.88;;;;;;;;;;2934878;28;10001466;-57
2022/01/25 07:51:35;;;;;;;18.67;9.77;;;;;;;;;;5007921;28;20095;-56
2022/01/25 07:54:01;;;;;;;15.85;9.40;;;;;;;;;;4992621;28;20497;-56
2022/01/25 07:56:27;;;;;;;18.58;10.05;;;;;;;;;;5007469;28;20486;-56
2022/01/25 07:58:52;;;;;;;17.77;9.80;;;;;;;;;;5009997;28;20040;-57
2022/01/25 08:01:19;;;;;;;17.10;9.65;;;;;;;;;;5008907;28;20033;-54
2022/01/25 08:03:45;;;;;;;17.10;9.77;;;;;;;;;;4989590;28;20097;-57
2022/01/25 08:06:12;;;;;;;18.20;9.20;;;;;;;;;;5010201;28;20061;-57
2022/01/25 08:08:38;;;;;;;18.50;9.77;;;;;;;;;;5008908;28;20034;-58
2022/01/25 08:11:04;;;;;;;16.65;9.85;;;;;;;;;;5009306;28;20026;-51
2022/01/25 08:13:30;;;;;;;16.95;9.60;;;;;;;;;;4991190;28;20044;-56
2022/01/25 08:15:55;;;;;;;17.20;10.13;;;;;;;;;;5006319;28;20030;-57
2022/01/25 08:18:21;;;;;;;17.83;10.10;;;;;;;;;;4994961;28;20037;-57
2022/01/25 08:20:46;;;;;;;19.17;10.07;;;;;;;;;;4995804;28;20033;-57
2022/01/25 08:23:12;;;;;;;15.85;9.38;;;;;;;;;;4999035;28;20544;-58
2022/01/25 08:25:37;;;;;;;14.57;9.32;;;;;;;;;;4997354;28;20048;-56
2022/01/25 08:28:03;;;;;;;17.48;9.32;;;;;;;;;;4996996;28;20061;-58
2022/01/25 08:30:28;;;;;;;17.70;9.88;;;;;;;;;;4998410;28;20061;-56
2022/01/25 08:32:54;;;;;;;18.23;10.05;;;;;;;;;;4998578;28;20042;-55
2022/01/25 08:35:19;;;;;;;19.58;9.77;;;;;;;;;;5003033;28;20030;-56
2022/01/25 08:37:45;;;;;;;18.90;9.70;;;;;;;;;;4999970;28;20532;-56
2022/01/25 08:40:11;;;;;;;17.02;9.63;;;;;;;;;;5008737;28;20041;-57
2022/01/25 08:42:37;;;;;;;15.48;9.60;;;;;;;;;;5005580;28;20041;-54
2022/01/25 08:45:04;;;;;;;20.65;10.27;;;;;;;;;;5009063;28;20022;-56
2022/01/25 08:47:30;;;;;;;19.10;9.73;;;;;;;;;;5008037;28;20029;-58
2022/01/25 08:49:55;;;;;;;17.00;9.35;;;;;;;;;;4989958;28;20397;-57
2022/01/25 08:52:21;;;;;;;18.77;9.70;;;;;;;;;;5010612;28;20449;-58
2022/01/25 08:54:46;;;;;;;21.55;10.18;;;;;;;;;;5005441;28;20092;-56
2022/01/25 08:57:11;;;;;;;15.30;9.38;;;;;;;;;;5007869;28;20149;-57
2022/01/25 08:59:37;;;;;;;16.52;9.50;;;;;;;;;;5008879;28;20053;-57
2022/01/25 09:02:03;;;;;;;17.85;9.48;;;;;;;;;;5006733;28;20034;-57
2022/01/25 09:04:28;;;;;;;19.10;9.77;;;;;;;;;;5007423;28;20044;-57
2022/01/25 09:06:54;;;;;;;18.50;9.63;;;;;;;;;;5007070;28;20692;-56
2022/01/25 09:09:20;;;;;;;18.85;10.00;;;;;;;;;;5006814;28;20026;-57
2022/01/25 09:12:02;;;;;;;15.47;8.28;;;;;;;;;;1143682;28;10023063;-52
2022/01/25 09:14:28;;;;;;;15.73;9.68;;;;;;;;;;4660518;28;10001000;-57
2022/01/25 09:16:53;;;;;;;17.52;9.50;;;;;;;;;;5008067;28;20076;-57
2022/01/25 09:19:20;;;;;;;17.08;9.43;;;;;;;;;;5006167;28;20038;-57
2022/01/25 09:21:45;;;;;;;18.27;9.68;;;;;;;;;;5007615;28;20137;-57
2022/01/25 09:24:10;;;;;;;18.45;9.85;;;;;;;;;;5005448;28;20025;-58
2022/01/25 09:26:36;;;;;;;17.52;10.07;;;;;;;;;;5013754;28;20092;-56
2022/01/25 09:29:03;;;;;;;16.95;10.02;;;;;;;;;;5010548;28;20028;-56
2022/01/25 09:31:28;;;;;;;21.48;10.70;;;;;;;;;;5010451;28;20050;-59
2022/01/25 09:33:55;;;;;;;19.40;9.60;;;;;;;;;;5009015;28;20033;-57
2022/01/25 09:36:21;;;;;;;15.15;9.63;;;;;;;;;;5010895;28;20034;-53
2022/01/25 09:38:46;;;;;;;15.93;9.52;;;;;;;;;;5012794;28;20031;-55
2022/01/25 09:41:12;;;;;;;15.32;9.93;;;;;;;;;;5011831;28;20038;-57
2022/01/25 09:43:38;;;;;;;17.75;9.90;;;;;;;;;;5013091;28;20474;-57
2022/01/25 09:46:03;;;;;;;14.52;9.45;;;;;;;;;;5011948;28;20080;-57
2022/01/25 09:48:28;;;;;;;17.27;9.20;;;;;;;;;;5011914;28;20706;-57
2022/01/25 09:50:56;;;;;;;16.02;10.10;;;;;;;;;;5012859;28;20073;-56
2022/01/25 09:53:24;;;;;;;24.70;10.38;;;;;;;;;;5010638;28;20053;-57
2022/01/25 09:55:49;;;;;;;19.48;10.60;;;;;;;;;;5011951;28;20049;-57
2022/01/25 09:58:15;;;;;;;21.02;10.50;;;;;;;;;;5011490;28;20030;-57
2022/01/25 10:00:45;;;;;;;19.00;11.00;;;;;;;;;;5011273;28;20053;-58
2022/01/25 10:03:19;;;;;;;19.85;10.85;;;;;;;;;;5009650;28;20029;-56
2022/01/25 10:05:47;;;;;;;19.98;11.43;;;;;;;;;;5012785;28;20076;-57
2022/01/25 10:08:15;;;;;;;22.25;11.48;;;;;;;;;;5010940;28;20556;-58
2022/01/25 10:10:47;;;;;;;20.73;11.43;;;;;;;;;;5010182;28;20038;-54
2022/01/25 10:13:21;;;;;;;18.95;10.95;;;;;;;;;;5009976;28;20030;-57
2022/01/25 10:15:49;;;;;;;20.20;10.98;;;;;;;;;;5008719;28;20112;-58
2022/01/25 10:18:15;;;;;;;23.30;11.38;;;;;;;;;;5012396;28;20037;-59
2022/01/25 10:20:46;;;;;;;18.15;10.10;;;;;;;;;;5009571;28;20614;-58
2022/01/25 10:23:30;;;;;;;22.25;11.25;;;;;;;;;;5011356;28;20026;-58
2022/01/25 10:25:56;;;;;;;19.70;11.10;;;;;;;;;;5008595;28;20034;-58
2022/01/25 10:28:27;;;;;;;20.08;11.45;;;;;;;;;;5009803;28;20060;-57
2022/01/25 10:31:02;;;;;;;18.05;9.85;;;;;;;;;;5007561;28;20028;-58
2022/01/25 10:33:50;;;;;;;18.08;10.88;;;;;;;;;;5007410;28;20111;-55
2022/01/25 10:36:22;;;;;;;16.33;10.25;;;;;;;;;;5009546;28;20030;-57
2022/01/25 10:38:50;;;;;;;19.73;10.75;;;;;;;;;;5009664;28;20025;-58
2022/01/25 10:41:18;;;;;;;15.82;10.63;;;;;;;;;;5011636;28;20033;-55
2022/01/25 10:43:47;;;;;;;21.42;10.73;;;;;;;;;;5010113;28;20037;-56
2022/01/25 10:46:19;;;;;;;15.15;10.23;;;;;;;;;;5011650;28;20112;-57
2022/01/25 10:48:49;;;;;;;18.95;11.05;;;;;;;;;;5009474;28;20049;-55
2022/01/25 10:51:25;;;;;;;22.40;12.43;;;;;;;;;;5011869;28;20367;-56
2022/01/25 10:54:25;;;;;;;17.27;10.52;;;;;;;;;;5010333;28;20026;-57
2022/01/25 10:56:54;;;;;;;15.55;10.18;;;;;;;;;;5011569;28;20026;-59
2022/01/25 10:59:38;;;;;;;19.75;10.88;;;;;;;;;;5004753;28;20681;-57
2022/01/25 11:02:05;;;;;;;17.15;10.20;;;;;;;;;;5008190;28;20026;-57
2022/01/25 11:04:35;;;;;;;19.92;10.73;;;;;;;;;;5009262;28;20413;-56
2022/01/25 11:07:03;;;;;;;17.67;10.38;;;;;;;;;;5007572;28;20030;-58
2022/01/25 11:09:36;;;;;;;21.63;10.88;;;;;;;;;;5007315;28;20124;-58
2022/01/25 11:12:04;;;;;;;19.13;11.00;;;;;;;;;;5007765;28;20042;-58
2022/01/25 11:17:15;;;;;;;18.63;10.15;;;;;;;;;;5010283;28;20046;-58
2022/01/25 11:19:40;;;;;;;19.58;11.05;;;;;;;;;;4993727;28;20429;-57
2022/01/25 11:22:09;;;;;;;19.02;10.98;;;;;;;;;;5009027;28;20124;-52
2022/01/25 11:24:35;;;;;;;20.48;11.32;;;;;;;;;;5005708;28;20072;-51
2022/01/25 11:27:04;;;;;;;20.85;11.95;;;;;;;;;;5009899;28;20508;-58
2022/01/25 11:29:30;;;;;;;18.58;11.10;;;;;;;;;;4948175;28;20187;-58
2022/01/25 11:32:01;;;;;;;19.67;11.83;;;;;;;;;;323721;28;10023399;-53
2022/01/25 11:34:30;;;;;;;20.65;12.25;;;;;;;;;;5008802;28;20080;-57
2022/01/25 11:36:58;;;;;;;17.08;10.70;;;;;;;;;;5009996;28;20147;-58
2022/01/25 11:39:28;;;;;;;18.45;10.93;;;;;;;;;;5011251;28;20136;-58
2022/01/25 11:42:15;;;;;;;19.08;9.93;;;;;;;;;;5007950;28;20338;-58
2022/01/25 11:44:57;;;;;;;17.80;10.50;;;;;;;;;;5006015;28;20064;-57
2022/01/25 11:47:37;;;;;;;21.88;11.05;;;;;;;;;;5009364;28;20029;-56
2022/01/25 11:50:02;;;;;;;17.85;10.60;;;;;;;;;;5007405;28;20564;-58
2022/01/25 11:52:30;;;;;;;15.75;10.68;;;;;;;;;;5007838;28;20049;-57
2022/01/25 11:55:17;;;;;;;20.45;10.63;;;;;;;;;;5009675;28;20666;-57
2022/01/25 11:57:49;;;;;;;18.55;10.57;;;;;;;;;;5011044;28;20018;-51
2022/01/25 12:00:15;;;;;;;20.98;11.40;;;;;;;;;;5008634;28;20030;-55
2022/01/25 12:02:53;;;;;;;18.98;10.52;;;;;;;;;;5011442;28;20469;-57
2022/01/25 12:05:26;;;;;;;22.75;12.80;;;;;;;;;;5006471;28;20036;-57
2022/01/25 12:08:14;;;;;;;22.77;12.68;;;;;;;;;;5010527;28;20385;-57
2022/01/25 12:10:44;;;;;;;25.52;12.85;;;;;;;;;;5007038;28;20045;-57
2022/01/25 12:13:28;;;;;;;21.17;12.20;;;;;;;;;;5008874;28;20072;-56
2022/01/25 12:16:27;;;;;;;26.40;13.63;;;;;;;;;;5008431;28;20045;-57
2022/01/25 12:18:58;;;;;;;18.60;12.10;;;;;;;;;;5009534;28;20049;-57
2022/01/25 12:22:12;;;;;;;24.75;12.15;;;;;;;;;;5005602;28;20040;-55
2022/01/25 12:24:43;;;;;;;21.17;12.30;;;;;;;;;;4978310;28;20576;-57
2022/01/25 12:29:42;;;;;;;29.40;12.90;;;;;;;;;;5007109;28;20034;-56
2022/01/25 12:32:27;;;;;;;26.88;12.85;;;;;;;;;;5008170;28;20845;-57
2022/01/25 12:35:12;;;;;;;24.38;12.27;;;;;;;;;;5010167;28;20101;-58
2022/01/25 12:37:44;;;;;;;25.08;12.65;;;;;;;;;;5011841;28;20052;-58
2022/01/25 12:40:25;;;;;;;23.60;12.57;;;;;;;;;;5008926;28;20034;-57
2022/01/25 12:43:19;;;;;;;26.00;12.73;;;;;;;;;;5006610;28;20076;-57
2022/01/25 12:45:50;;;;;;;21.50;12.52;;;;;;;;;;4980907;28;20037;-58
2022/01/25 12:48:21;;;;;;;23.33;12.52;;;;;;;;;;5007029;28;20048;-58
2022/01/25 12:50:50;;;;;;;28.73;11.95;;;;;;;;;;5007246;28;20544;-57
2022/01/25 12:53:21;;;;;;;21.88;12.27;;;;;;;;;;5007593;28;20026;-57
2022/01/25 12:55:50;;;;;;;20.58;11.80;;;;;;;;;;5008316;28;20025;-57
2022/01/25 12:58:19;;;;;;;22.25;12.63;;;;;;;;;;5001472;28;20383;-57
2022/01/25 13:00:47;;;;;;;28.65;12.85;;;;;;;;;;5004863;28;20393;-56
2022/01/25 13:03:13;;;;;;;19.23;11.68;;;;;;;;;;5007041;28;20038;-57
2022/01/25 13:05:45;;;;;;;23.10;11.45;;;;;;;;;;5013025;28;20466;-56
2022/01/25 13:08:28;;;;;;;24.48;11.50;;;;;;;;;;5014040;28;20028;-58
2022/01/25 13:11:15;;;;;;;23.20;12.07;;;;;;;;;;5013312;28;20030;-57
2022/01/25 13:14:03;;;;;;;26.98;11.82;;;;;;;;;;5013664;28;20037;-57
2022/01/25 13:16:49;;;;;;;22.77;12.13;;;;;;;;;;5014757;28;20386;-56
2022/01/25 13:19:27;;;;;;;18.00;9.43;;;;;;;;;;1544102;28;10023543;-57
2022/01/25 13:21:59;;;;;;;28.30;13.02;;;;;;;;;;3976990;28;10001773;-57
2022/01/25 13:24:29;;;;;;;22.77;12.50;;;;;;;;;;5014185;28;20025;-56
2022/01/25 13:26:57;;;;;;;24.67;12.23;;;;;;;;;;5015389;28;20030;-56
2022/01/25 13:32:20;;;;;;;25.67;12.00;;;;;;;;;;5015958;28;20059;-57
2022/01/25 13:35:13;;;;;;;26.92;12.40;;;;;;;;;;5014823;28;20375;-57
2022/01/25 13:37:38;;;;;;;22.30;11.80;;;;;;;;;;5012338;28;20702;-55
2022/01/25 13:40:05;;;;;;;24.35;12.10;;;;;;;;;;5015911;28;20070;-52
2022/01/25 13:42:45;;;;;;;24.75;13.32;;;;;;;;;;5014923;28;20072;-57
2022/01/25 13:48:05;;;;;;;25.48;11.73;;;;;;;;;;5012731;28;20365;-58
2022/01/25 13:50:32;;;;;;;26.55;12.63;;;;;;;;;;5014453;28;20048;-57
2022/01/25 13:52:58;;;;;;;25.77;13.05;;;;;;;;;;5015678;28;20037;-58
2022/01/25 13:55:23;;;;;;;24.63;12.95;;;;;;;;;;5016945;28;20490;-56
2022/01/25 13:57:49;;;;;;;22.20;13.00;;;;;;;;;;5015057;28;20034;-56
2022/01/25 14:00:16;;;;;;;30.25;12.15;;;;;;;;;;5014810;28;20033;-57
2022/01/25 14:02:42;;;;;;;22.10;12.90;;;;;;;;;;5015670;28;20036;-57
2022/01/25 14:05:07;;;;;;;23.75;12.65;;;;;;;;;;5013028;28;20702;-57
2022/01/25 14:07:39;;;;;;;35.08;14.20;;;;;;;;;;5015414;28;20080;-51
2022/01/25 14:10:07;;;;;;;41.60;14.05;;;;;;;;;;5012783;28;20021;-54
2022/01/25 14:23:29;;;;;;;21.25;13.05;;;;;;;;;;5009416;28;20211;-56
2022/01/25 14:26:04;;;;;;;24.13;12.27;;;;;;;;;;5009448;28;20026;-57
2022/01/25 14:28:32;;;;;;;27.00;13.13;;;;;;;;;;5008463;28;20490;-56
2022/01/25 14:30:58;;;;;;;22.50;12.57;;;;;;;;;;5010732;28;20030;-55
2022/01/25 14:33:26;;;;;;;22.17;10.88;;;;;;;;;;5010956;28;20405;-54
2022/01/25 14:35:56;;;;;;;20.17;11.20;;;;;;;;;;5009844;28;20044;-56
2022/01/25 14:38:29;;;;;;;21.88;13.05;;;;;;;;;;5008241;28;20110;-56
2022/01/25 14:41:23;;;;;;;28.67;14.07;;;;;;;;;;5010809;28;20493;-56
2022/01/25 14:43:58;;;;;;;28.23;14.65;;;;;;;;;;4992027;28;20029;-56
2022/01/25 14:46:27;;;;;;;31.38;15.98;;;;;;;;;;5012056;28;20043;-56
2022/01/25 14:49:09;;;;;;;30.83;15.85;;;;;;;;;;5010895;28;20041;-53
2022/01/25 14:51:34;;;;;;;32.05;16.77;;;;;;;;;;5008225;28;20033;-55
2022/01/25 14:54:01;;;;;;;34.13;17.23;;;;;;;;;;5010670;28;20033;-55
2022/01/25 14:56:31;;;;;;;35.28;17.73;;;;;;;;;;5006678;28;20045;-57
2022/01/25 15:01:46;;;;;;;28.60;16.02;;;;;;;;;;5009736;28;20036;-56
2022/01/25 15:04:11;;;;;;;32.78;16.08;;;;;;;;;;5010839;28;20037;-57
2022/01/25 15:06:37;;;;;;;33.83;15.93;;;;;;;;;;5010084;28;20033;-58
2022/01/25 15:09:02;;;;;;;31.55;15.77;;;;;;;;;;5010608;28;20044;-57
2022/01/25 15:11:32;;;;;;;32.10;16.05;;;;;;;;;;3636829;28;10025216;-56
2022/01/25 15:14:06;;;;;;;31.63;16.58;;;;;;;;;;1725986;28;10002072;-55
2022/01/25 15:16:31;;;;;;;35.60;17.38;;;;;;;;;;5008697;28;20541;-57
2022/01/25 15:18:57;;;;;;;34.72;16.80;;;;;;;;;;5007675;28;20120;-58
2022/01/25 15:21:23;;;;;;;32.72;16.67;;;;;;;;;;4992475;28;20036;-57
2022/01/25 15:23:50;;;;;;;37.65;16.45;;;;;;;;;;5008915;28;20026;-56
2022/01/25 15:26:18;;;;;;;32.20;16.10;;;;;;;;;;5007993;28;20330;-56
2022/01/25 15:28:47;;;;;;;40.58;17.08;;;;;;;;;;5008291;28;20116;-57
2022/01/25 15:31:18;;;;;;;33.30;16.83;;;;;;;;;;4991357;28;20022;-57
2022/01/25 15:33:44;;;;;;;40.28;16.10;;;;;;;;;;5006343;28;20081;-57
2022/01/25 15:36:16;;;;;;;35.00;16.50;;;;;;;;;;5008345;28;20425;-59
2022/01/25 15:38:47;;;;;;;34.08;16.67;;;;;;;;;;5009289;28;20026;-56
2022/01/25 15:41:13;;;;;;;29.92;15.65;;;;;;;;;;5007533;28;20033;-58
2022/01/25 15:43:56;;;;;;;31.25;16.25;;;;;;;;;;5007150;28;20041;-57
2022/01/25 15:48:55;;;;;;;32.92;16.65;;;;;;;;;;5008374;28;20441;-57
2022/01/25 15:51:21;;;;;;;32.22;16.08;;;;;;;;;;5012604;28;20018;-56
2022/01/25 15:53:47;;;;;;;33.22;16.02;;;;;;;;;;5006120;28;20029;-56
2022/01/25 15:56:14;;;;;;;32.95;15.40;;;;;;;;;;5003353;28;20211;-54
2022/01/25 15:58:39;;;;;;;36.72;16.45;;;;;;;;;;5006041;28;20030;-57
2022/01/25 16:01:06;;;;;;;30.88;16.63;;;;;;;;;;5008237;28;20048;-54
2022/01/25 16:03:32;;;;;;;32.30;17.40;;;;;;;;;;5005024;28;20316;-57
2022/01/25 16:05:58;;;;;;;36.38;17.30;;;;;;;;;;5008469;28;20437;-55
2022/01/25 16:08:24;;;;;;;35.65;17.23;;;;;;;;;;4992371;28;20065;-53
2022/01/25 16:10:50;;;;;;;35.95;17.65;;;;;;;;;;5008019;28;20033;-57
2022/01/25 16:13:16;;;;;;;38.03;16.85;;;;;;;;;;5006756;28;20140;-57
2022/01/25 16:15:41;;;;;;;39.58;18.42;;;;;;;;;;5008178;28;20112;-58
2022/01/25 16:18:07;;;;;;;38.33;17.95;;;;;;;;;;5007788;28;20113;-56
2022/01/25 16:20:33;;;;;;;42.28;18.52;;;;;;;;;;5009209;28;20087;-58
2022/01/25 16:22:59;;;;;;;47.63;18.92;;;;;;;;;;5006969;28;20068;-58
2022/01/25 16:25:24;;;;;;;40.67;18.58;;;;;;;;;;5007932;28;20053;-57
2022/01/25 16:27:51;;;;;;;39.08;17.52;;;;;;;;;;5007197;28;20152;-57
2022/01/25 16:30:17;;;;;;;42.45;18.50;;;;;;;;;;5008199;28;20033;-56
2022/01/25 16:32:45;;;;;;;34.03;17.77;;;;;;;;;;5007393;28;20040;-58
2022/01/25 16:35:13;;;;;;;38.72;16.90;;;;;;;;;;5004713;28;20118;-58
2022/01/25 16:37:39;;;;;;;37.30;17.35;;;;;;;;;;5006747;28;20041;-58
2022/01/25 16:40:06;;;;;;;46.65;18.63;;;;;;;;;;5009143;28;20033;-55